Time;durP1;ratioP1;P1;durP2;ratioP2;P2;SDS_P1;SDS_P2;PMS_P1;PMS_P2;Temp;Humidity;BMP_temperature;BMP_pressure;BME280_temperature;BME280_humidity;BME280_pressure;Samples;Min_cycle;Max_cycle;Signal;HPM_P1;HPM_P2
2022/12/10 00:01:08;;;;;;;80.30;37.40;;;;;;;0.68;86.73;100170.03;1714836;82;20922;-75
2022/12/10 00:03:54;;;;;;;78.70;38.00;;;;;;;0.66;86.71;100173.41;1711873;82;21457;-75
2022/12/10 00:06:40;;;;;;;77.10;35.95;;;;;;;0.64;86.72;100168.70;1713764;82;20989;-75
2022/12/10 00:09:24;;;;;;;77.20;37.13;;;;;;;0.65;86.77;100172.97;1718356;82;20942;-75
2022/12/10 00:12:09;;;;;;;74.53;35.20;;;;;;;0.65;86.73;100169.15;1712833;81;20938;-74
2022/12/10 00:14:54;;;;;;;77.85;36.73;;;;;;;0.66;86.77;100177.22;1716752;82;20962;-75
2022/12/10 00:17:39;;;;;;;73.25;35.05;;;;;;;0.67;86.77;100176.81;1715646;82;20966;-75
2022/12/10 00:20:24;;;;;;;79.00;37.00;;;;;;;0.66;86.69;100178.50;1715817;80;21507;-75
2022/12/10 00:23:09;;;;;;;70.32;35.28;;;;;;;0.65;86.71;100175.92;1716398;81;20914;-74
2022/12/10 00:25:54;;;;;;;69.35;34.45;;;;;;;0.65;86.73;100169.15;1713870;82;20954;-75
2022/12/10 00:28:41;;;;;;;81.63;36.83;;;;;;;0.60;86.71;100158.45;1715007;82;20953;-75
2022/12/10 00:31:30;;;;;;;66.12;34.38;;;;;;;0.66;86.70;100176.36;1712527;82;21077;-75
2022/12/10 00:34:15;;;;;;;70.00;34.33;;;;;;;0.64;86.72;100181.84;1712260;82;21019;-75
2022/12/10 00:37:00;;;;;;;71.60;36.07;;;;;;;0.61;86.67;100176.28;1710588;81;20982;-75
2022/12/10 00:39:45;;;;;;;72.87;35.95;;;;;;;0.62;86.73;100183.50;1707412;81;20921;-75
2022/12/10 00:42:29;;;;;;;69.20;32.30;;;;;;;0.65;86.83;100178.47;1706132;81;20952;-74
2022/12/10 00:45:15;;;;;;;68.85;34.25;;;;;;;0.67;86.81;100179.35;1705502;81;20913;-74
2022/12/10 00:47:59;;;;;;;65.72;33.75;;;;;;;0.70;86.82;100182.36;1710468;81;21447;-74
2022/12/10 00:50:45;;;;;;;71.33;33.23;;;;;;;0.70;86.78;100181.95;1708380;81;20911;-74
2022/12/10 00:53:32;;;;;;;61.08;30.72;;;;;;;0.70;86.71;100179.41;1690417;83;21498;-75
2022/12/10 00:56:21;;;;;;;69.45;32.65;;;;;;;0.70;86.73;100181.95;1708509;81;21000;-74
2022/12/10 00:59:05;;;;;;;64.05;32.95;;;;;;;0.71;86.74;100183.66;1708075;81;20990;-74
2022/12/10 01:01:51;;;;;;;64.35;32.38;;;;;;;0.72;86.74;100187.06;1707506;81;21391;-75
2022/12/10 01:04:35;;;;;;;67.20;33.13;;;;;;;0.70;86.70;100181.09;1705303;81;21305;-74
2022/12/10 01:07:20;;;;;;;70.42;34.38;;;;;;;0.72;86.76;100189.61;1706966;81;20918;-74
2022/12/10 01:10:06;;;;;;;67.95;32.28;;;;;;;0.71;86.71;100182.80;1704409;81;21032;-75
2022/12/10 01:12:51;;;;;;;66.05;34.50;;;;;;;0.71;86.73;100187.48;1706443;81;21378;-75
2022/12/10 01:15:39;;;;;;;65.83;33.75;;;;;;;0.72;86.74;100192.16;1707441;81;21504;-74
2022/12/10 01:18:24;;;;;;;73.07;34.18;;;;;;;0.72;86.68;100190.46;1708100;81;20973;-74
2022/12/10 01:21:13;;;;;;;65.70;31.73;;;;;;;0.73;86.77;100183.69;1707221;81;20925;-74
2022/12/10 01:23:58;;;;;;;65.83;33.15;;;;;;;0.75;86.74;100186.70;1707775;81;20924;-74
2022/12/10 01:26:43;;;;;;;69.20;33.40;;;;;;;0.73;86.67;100190.91;1707931;81;21544;-75
2022/12/10 01:29:28;;;;;;;66.15;32.93;;;;;;;0.73;86.68;100194.72;1708366;80;20893;-74
2022/12/10 01:32:13;;;;;;;65.32;32.20;;;;;;;0.73;86.67;100191.32;1705628;81;20953;-75
2022/12/10 01:34:59;;;;;;;67.05;32.98;;;;;;;0.71;86.58;100191.71;1707924;81;20946;-74
2022/12/10 01:37:44;;;;;;;70.67;33.05;;;;;;;0.67;86.58;100194.62;1715849;81;21540;-74
2022/12/10 01:40:30;;;;;;;67.30;33.25;;;;;;;0.67;86.65;100190.80;1717280;81;20918;-74
2022/12/10 01:43:15;;;;;;;61.40;31.90;;;;;;;0.67;86.63;100188.26;1717192;81;21550;-75
2022/12/10 01:46:00;;;;;;;69.90;34.30;;;;;;;0.66;86.65;100192.48;1718446;80;21351;-74
2022/12/10 01:48:46;;;;;;;63.63;32.30;;;;;;;0.67;86.67;100186.98;1715806;81;20942;-74
2022/12/10 01:51:35;;;;;;;63.15;32.75;;;;;;;0.67;86.65;100183.17;1717265;81;21316;-75
2022/12/10 01:54:28;;;;;;;65.95;33.65;;;;;;;0.66;86.63;100179.77;1718129;81;21038;-74
2022/12/10 01:57:20;;;;;;;63.70;31.95;;;;;;;0.66;86.62;100186.13;1718096;81;21489;-74
2022/12/10 02:00:07;;;;;;;60.48;31.37;;;;;;;0.66;86.65;100180.18;1717397;81;21316;-74
2022/12/10 02:03:06;;;;;;;59.03;30.43;;;;;;;0.66;86.64;100178.50;1717153;81;20942;-74
2022/12/10 02:05:56;;;;;;;54.83;29.15;;;;;;;0.66;86.63;100175.09;1716475;81;20906;-74
2022/12/10 02:09:11;;;;;;;57.05;28.98;;;;;;;0.64;86.55;100174.21;1718061;81;21359;-74
2022/12/10 02:12:13;;;;;;;59.05;27.42;;;;;;;0.62;86.52;100173.33;1718626;80;20890;-74
2022/12/10 02:15:21;;;;;;;53.23;29.57;;;;;;;0.60;86.50;100174.58;1717306;81;20953;-74
2022/12/10 02:18:14;;;;;;;50.45;26.97;;;;;;;0.59;86.56;100169.45;1705780;82;21059;-74
2022/12/10 02:21:10;;;;;;;52.25;28.25;;;;;;;0.59;86.52;100175.82;1717311;81;20930;-74
2022/12/10 02:23:58;;;;;;;;;;;;;;;0.60;86.53;100176.26;1721148;81;20907;-74
2022/12/10 02:27:24;;;;;;;51.25;25.48;;;;;;;0.58;86.47;100174.96;1718831;81;20144;-75
2022/12/10 02:30:10;;;;;;;50.60;25.30;;;;;;;0.57;86.45;100174.52;1720032;81;21379;-74
2022/12/10 02:32:57;;;;;;;47.62;25.75;;;;;;;0.56;86.46;100175.35;1718910;81;21021;-74
2022/12/10 02:35:43;;;;;;;46.65;24.90;;;;;;;0.55;86.47;100181.27;1721763;81;20922;-74
2022/12/10 02:38:32;;;;;;;46.15;23.75;;;;;;;0.56;86.48;100177.03;1721093;81;20914;-74
2022/12/10 02:41:22;;;;;;;44.50;23.20;;;;;;;0.56;86.47;100176.63;1720756;81;21434;-74
2022/12/10 02:44:11;;;;;;;43.08;22.73;;;;;;;0.54;86.41;100175.73;1721620;81;21336;-74
2022/12/10 02:46:58;;;;;;;39.25;21.80;;;;;;;0.54;86.44;100173.20;1719840;81;20961;-74
2022/12/10 02:49:46;;;;;;;43.23;22.82;;;;;;;0.55;86.45;100177.87;1718413;81;20938;-74
2022/12/10 02:52:31;;;;;;;39.45;21.80;;;;;;;0.56;86.42;100174.49;1718367;81;20906;-74
2022/12/10 02:55:17;;;;;;;37.23;20.05;;;;;;;0.56;86.44;100173.22;1718535;81;21395;-74
2022/12/10 02:58:16;;;;;;;43.85;22.05;;;;;;;0.56;86.39;100170.68;1719776;81;21415;-74
2022/12/10 03:01:21;;;;;;;35.13;19.50;;;;;;;0.54;86.31;100165.56;1718654;81;20914;-74
2022/12/10 03:04:17;;;;;;;36.03;19.65;;;;;;;0.51;86.29;100171.05;1719850;81;20895;-74
2022/12/10 03:07:05;;;;;;;;;;;;;;;0.50;86.28;100173.14;1722289;81;20938;-74
2022/12/10 03:09:56;;;;;;;34.70;17.40;;;;;;;0.49;86.26;100171.44;1718066;81;20099;-74
2022/12/10 03:12:48;;;;;;;33.98;18.85;;;;;;;0.49;86.28;100181.61;1718009;81;21319;-74
2022/12/10 03:15:37;;;;;;;40.60;21.45;;;;;;;0.47;86.26;100184.13;1718279;81;21037;-74
2022/12/10 03:18:25;;;;;;;33.80;18.67;;;;;;;0.48;86.27;100183.70;1720188;81;21399;-74
2022/12/10 03:21:10;;;;;;;33.90;20.05;;;;;;;0.47;86.30;100182.86;1716830;81;20978;-74
2022/12/10 03:23:55;;;;;;;40.73;19.45;;;;;;;0.48;86.30;100184.56;1714893;82;21013;-74
2022/12/10 03:26:42;;;;;;;36.95;19.80;;;;;;;0.47;86.27;100181.58;1723288;81;21379;-74
2022/12/10 03:29:34;;;;;;;36.93;20.37;;;;;;;0.48;86.33;100181.16;1727006;81;20965;-75
2022/12/10 03:32:22;;;;;;;34.88;19.32;;;;;;;0.50;86.35;100185.45;1728654;82;21364;-75
2022/12/10 03:35:08;;;;;;;35.60;19.65;;;;;;;0.51;86.31;100190.98;1726414;81;21580;-74
2022/12/10 03:37:54;;;;;;;37.53;19.27;;;;;;;0.51;86.28;100190.13;1721076;82;21022;-74
2022/12/10 03:40:40;;;;;;;35.63;19.55;;;;;;;0.50;86.27;100187.14;1722735;82;20957;-74
2022/12/10 03:43:25;;;;;;;35.43;18.05;;;;;;;0.51;86.29;100185.89;1649202;80;5000801;-75
2022/12/10 03:46:10;;;;;;;37.93;19.57;;;;;;;0.52;86.30;100190.56;1719854;82;20935;-74
2022/12/10 03:48:56;;;;;;;36.13;18.90;;;;;;;0.54;86.31;100192.69;1723949;81;21375;-75
2022/12/10 03:51:41;;;;;;;38.95;19.50;;;;;;;0.55;86.32;100196.95;1719321;82;29016;-75
2022/12/10 03:54:26;;;;;;;35.45;19.73;;;;;;;0.56;86.32;100199.52;1721151;82;20902;-74
2022/12/10 03:57:11;;;;;;;38.75;20.52;;;;;;;0.57;86.29;100207.59;1715644;82;21029;-75
2022/12/10 03:59:55;;;;;;;34.00;18.52;;;;;;;0.55;86.23;100205.44;1722051;80;21432;-74
2022/12/10 04:02:41;;;;;;;31.68;19.55;;;;;;;0.55;86.25;100201.62;1721101;80;21834;-74
2022/12/10 04:05:26;;;;;;;35.92;20.10;;;;;;;0.54;86.22;100201.17;1724364;82;20954;-74
2022/12/10 04:08:11;;;;;;;33.95;18.25;;;;;;;0.55;86.29;100199.48;1720018;82;20988;-74
2022/12/10 04:11:06;;;;;;;33.73;18.57;;;;;;;0.56;86.35;100206.30;1716194;82;20919;-74
2022/12/10 04:16:54;;;;;;;31.87;18.45;;;;;;;0.55;86.21;100199.08;1707608;82;20971;-74
2022/12/10 04:19:39;;;;;;;29.15;17.82;;;;;;;0.54;86.24;100194.81;1718570;82;20914;-74
2022/12/10 04:28:31;;;;;;;34.45;18.52;;;;;;;0.54;86.19;100201.17;1719254;82;21446;-74
2022/12/10 04:31:16;;;;;;;34.27;18.80;;;;;;;0.52;86.16;100196.92;1723086;82;21407;-74
2022/12/10 04:34:01;;;;;;;30.70;17.77;;;;;;;0.52;86.14;100199.47;1721363;81;20938;-74
2022/12/10 04:36:46;;;;;;;32.98;18.17;;;;;;;0.51;86.12;100190.13;1722549;82;20958;-74
2022/12/10 04:39:31;;;;;;;33.18;18.02;;;;;;;0.48;86.08;100189.66;1720266;82;21431;-74
2022/12/10 04:42:17;;;;;;;35.03;18.27;;;;;;;0.48;86.10;100197.70;1722250;81;21503;-74
2022/12/10 04:45:02;;;;;;;30.08;17.10;;;;;;;0.48;86.08;100196.43;1717774;82;20906;-74
2022/12/10 04:47:47;;;;;;;33.13;18.45;;;;;;;0.47;86.09;100194.30;1721860;82;21364;-74
2022/12/10 04:50:32;;;;;;;43.83;21.33;;;;;;;0.48;86.04;100193.88;1722749;82;21432;-75
2022/12/10 04:53:17;;;;;;;29.82;17.67;;;;;;;0.44;86.02;100186.61;1720854;81;20954;-75
2022/12/10 04:56:04;;;;;;;34.65;17.87;;;;;;;0.45;86.07;100183.66;1718048;82;20907;-74
2022/12/10 04:58:49;;;;;;;33.78;18.27;;;;;;;0.44;86.07;100185.34;1722681;82;20895;-74
2022/12/10 05:01:34;;;;;;;32.60;17.92;;;;;;;0.45;86.07;100188.33;1720787;82;21039;-73
2022/12/10 05:04:19;;;;;;;32.00;18.48;;;;;;;0.45;86.05;100192.14;1720052;82;21407;-74
2022/12/10 05:07:04;;;;;;;33.65;17.82;;;;;;;0.45;85.99;100195.09;1717990;81;21450;-74
2022/12/10 05:09:49;;;;;;;32.90;18.10;;;;;;;0.44;86.02;100189.16;1718496;81;21034;-74
2022/12/10 05:12:34;;;;;;;32.70;18.45;;;;;;;0.46;86.07;100198.09;1720782;82;20894;-74
2022/12/10 05:15:19;;;;;;;34.18;19.05;;;;;;;0.46;86.06;100196.40;1717417;82;20902;-73
2022/12/10 05:18:04;;;;;;;30.37;17.87;;;;;;;0.47;86.06;100199.80;1719129;82;20962;-73
2022/12/10 05:20:50;;;;;;;32.60;19.27;;;;;;;0.47;86.01;100204.89;1716487;82;21589;-75
2022/12/10 05:23:41;;;;;;;36.28;19.98;;;;;;;0.47;85.98;100208.29;1723502;82;20918;-75
2022/12/10 05:26:26;;;;;;;36.42;18.40;;;;;;;0.46;85.96;100209.12;1717600;82;21394;-75
2022/12/10 05:29:13;;;;;;;36.95;18.95;;;;;;;0.46;85.93;100213.34;1718818;81;21475;-75
2022/12/10 05:31:57;;;;;;;36.58;19.15;;;;;;;0.45;85.95;100207.81;1715462;82;20950;-75
2022/12/10 05:34:42;;;;;;;32.85;17.85;;;;;;;0.45;85.95;100214.17;1719336;82;21506;-74
2022/12/10 05:37:28;;;;;;;38.63;19.67;;;;;;;0.45;85.99;100212.48;1717593;82;20962;-74
2022/12/10 05:40:13;;;;;;;43.78;23.15;;;;;;;0.45;85.91;100216.72;1719371;81;21356;-74
2022/12/10 05:42:57;;;;;;;44.03;22.30;;;;;;;0.44;85.94;100217.13;1715472;81;21435;-74
2022/12/10 05:45:43;;;;;;;36.13;20.30;;;;;;;0.42;85.89;100211.16;1719534;81;21336;-73
2022/12/10 05:48:28;;;;;;;31.80;17.98;;;;;;;0.42;85.87;100215.39;1718527;81;20950;-73
2022/12/10 05:51:17;;;;;;;33.90;19.00;;;;;;;0.40;85.85;100216.63;1720721;81;20973;-75
2022/12/10 05:54:03;;;;;;;35.48;18.23;;;;;;;0.41;85.84;100224.70;1719873;81;20903;-75
2022/12/10 05:56:48;;;;;;;34.88;18.70;;;;;;;0.38;85.81;100218.30;1706287;81;20958;-75
2022/12/10 05:59:33;;;;;;;40.45;18.85;;;;;;;0.39;85.83;100225.50;1721503;81;20914;-75
2022/12/10 06:02:18;;;;;;;34.55;19.05;;;;;;;0.39;85.81;100231.86;1719194;81;20993;-75
2022/12/10 06:05:02;;;;;;;38.40;19.12;;;;;;;0.40;85.85;100231.89;1720003;81;20906;-74
2022/12/10 06:07:47;;;;;;;33.20;18.62;;;;;;;0.40;85.84;100233.58;1719357;81;20918;-75
2022/12/10 06:10:35;;;;;;;36.77;18.50;;;;;;;0.39;85.82;100233.99;1718891;81;20954;-74
2022/12/10 06:13:20;;;;;;;32.98;18.73;;;;;;;0.40;85.88;100236.98;1718844;81;20903;-74
2022/12/10 06:16:08;;;;;;;39.90;21.17;;;;;;;0.41;85.80;100234.88;1717497;81;21037;-74
2022/12/10 06:18:53;;;;;;;36.98;19.37;;;;;;;0.42;85.79;100240.83;1718314;80;20997;-74
2022/12/10 06:21:38;;;;;;;41.77;20.85;;;;;;;0.42;85.82;100246.77;1714837;81;21013;-74
2022/12/10 06:24:22;;;;;;;44.03;21.73;;;;;;;0.43;85.83;100243.39;1718583;81;20930;-74
2022/12/10 06:27:07;;;;;;;53.08;28.07;;;;;;;0.43;85.79;100244.66;1714570;81;20953;-75
2022/12/10 06:29:52;;;;;;;53.58;27.00;;;;;;;0.44;85.82;100242.98;1718754;80;20910;-74
2022/12/10 06:32:37;;;;;;;45.95;23.65;;;;;;;0.44;85.79;100246.80;1716204;81;21037;-74
2022/12/10 06:35:22;;;;;;;34.65;19.70;;;;;;;0.44;85.79;100245.52;1717996;81;20989;-74
2022/12/10 06:38:07;;;;;;;38.30;20.45;;;;;;;0.45;85.85;100243.42;1715205;81;21613;-74
2022/12/10 06:40:52;;;;;;;38.00;19.42;;;;;;;0.45;85.78;100246.83;1713466;82;20965;-74
2022/12/10 06:43:37;;;;;;;33.05;18.70;;;;;;;0.46;85.82;100247.27;1712346;80;20979;-74
2022/12/10 06:46:22;;;;;;;34.03;18.40;;;;;;;0.47;85.75;100253.21;1712716;82;20894;-74
2022/12/10 06:49:08;;;;;;;36.03;19.12;;;;;;;0.46;85.76;100252.36;1710628;81;20919;-73
2022/12/10 06:51:53;;;;;;;31.07;17.82;;;;;;;0.47;85.82;100255.34;1712394;82;28055;-74
2022/12/10 06:54:38;;;;;;;32.30;17.55;;;;;;;0.48;85.80;100252.38;1714666;82;20961;-73
2022/12/10 06:57:23;;;;;;;31.95;17.82;;;;;;;0.49;85.73;100256.64;1713714;80;20941;-73
2022/12/10 07:00:10;;;;;;;32.65;18.87;;;;;;;0.50;85.79;100259.22;1713327;82;20962;-74
2022/12/10 07:02:55;;;;;;;31.48;18.30;;;;;;;0.51;85.75;100258.80;1714067;81;20918;-73
2022/12/10 07:05:40;;;;;;;36.30;19.82;;;;;;;0.51;85.71;100265.16;1714187;80;21002;-73
2022/12/10 07:08:25;;;;;;;33.58;17.40;;;;;;;0.50;85.73;100260.91;1711984;82;20950;-75
2022/12/10 07:11:13;;;;;;;35.08;20.40;;;;;;;0.52;85.75;100266.88;1709535;82;21434;-74
2022/12/10 07:13:59;;;;;;;38.02;19.92;;;;;;;0.51;85.76;100268.56;1701583;82;20986;-74
2022/12/10 07:16:44;;;;;;;34.23;19.55;;;;;;;0.52;85.73;100270.24;1711940;82;20934;-74
2022/12/10 07:19:28;;;;;;;29.95;18.27;;;;;;;0.53;85.75;100266.02;1713429;80;21484;-74
2022/12/10 07:22:13;;;;;;;35.20;17.77;;;;;;;0.53;85.71;100266.02;1713115;82;21065;-73
2022/12/10 07:24:58;;;;;;;30.25;17.17;;;;;;;0.53;85.70;100268.14;1712196;81;20954;-74
2022/12/10 07:27:43;;;;;;;32.60;17.90;;;;;;;0.53;85.67;100266.02;1711536;82;21426;-74
2022/12/10 07:30:28;;;;;;;31.37;16.75;;;;;;;0.50;85.63;100266.84;1712701;81;21439;-74
2022/12/10 07:33:13;;;;;;;30.57;16.25;;;;;;;0.49;85.62;100258.77;1712052;82;21486;-74
2022/12/10 07:35:58;;;;;;;25.65;15.15;;;;;;;0.49;85.55;100255.38;1714023;82;20950;-74
2022/12/10 07:38:43;;;;;;;30.52;17.55;;;;;;;0.47;85.56;100255.34;1712384;82;20955;-74
2022/12/10 07:41:29;;;;;;;30.65;15.88;;;;;;;0.45;85.54;100252.33;1712914;81;20961;-74
2022/12/10 07:44:14;;;;;;;32.30;16.42;;;;;;;0.44;85.54;100251.47;1713605;82;21510;-74
2022/12/10 07:46:59;;;;;;;29.27;16.62;;;;;;;0.44;85.56;100252.74;1712270;82;21472;-74
2022/12/10 07:49:44;;;;;;;35.52;19.23;;;;;;;0.43;85.52;100251.02;1709586;82;21427;-74
2022/12/10 07:52:29;;;;;;;41.15;23.70;;;;;;;0.42;85.53;100251.86;1710538;82;21423;-74
2022/12/10 07:55:15;;;;;;;40.98;22.80;;;;;;;0.40;85.43;100248.84;1712397;81;20954;-74
2022/12/10 07:57:59;;;;;;;41.37;27.15;;;;;;;0.38;85.46;100247.53;1712393;82;20898;-74
2022/12/10 08:00:44;;;;;;;35.78;21.95;;;;;;;0.37;85.46;100244.55;1713636;81;20958;-74
2022/12/10 08:03:30;;;;;;;33.33;22.25;;;;;;;0.37;85.49;100248.36;1710387;82;21343;-74
2022/12/10 08:06:18;;;;;;;31.55;19.52;;;;;;;0.39;85.49;100254.75;1713789;81;20902;-74
2022/12/10 08:09:03;;;;;;;27.13;16.25;;;;;;;0.39;85.49;100255.61;1714336;80;20965;-74
2022/12/10 08:11:48;;;;;;;36.70;20.45;;;;;;;0.40;85.43;100256.47;1714362;82;21002;-74
2022/12/10 08:14:33;;;;;;;29.98;17.20;;;;;;;0.39;85.43;100255.61;1713933;81;21613;-74
2022/12/10 08:17:18;;;;;;;28.95;15.83;;;;;;;0.42;85.40;100263.71;1714105;80;21435;-74
2022/12/10 08:20:03;;;;;;;31.23;16.95;;;;;;;0.39;85.40;100264.51;1713863;81;21530;-74
2022/12/10 08:22:48;;;;;;;31.77;17.47;;;;;;;0.39;85.33;100265.78;1712344;81;21411;-74
2022/12/10 08:25:33;;;;;;;27.58;15.70;;;;;;;0.40;85.39;100269.18;1713072;82;20931;-74
2022/12/10 08:28:18;;;;;;;30.82;18.12;;;;;;;0.43;85.42;100273.91;1714106;82;20903;-74
2022/12/10 08:31:06;;;;;;;36.93;20.20;;;;;;;0.44;85.37;100281.98;1714795;80;21030;-74
2022/12/10 08:33:51;;;;;;;53.28;25.57;;;;;;;0.46;85.41;100279.06;1713098;80;20938;-74
2022/12/10 08:36:36;;;;;;;43.52;21.45;;;;;;;0.45;85.34;100276.08;1714484;82;20894;-74
2022/12/10 08:39:21;;;;;;;31.20;17.70;;;;;;;0.47;85.34;100277.37;1711674;81;21028;-74
2022/12/10 08:42:06;;;;;;;29.77;16.10;;;;;;;0.49;85.35;100276.58;1709893;82;20891;-74
2022/12/10 08:44:50;;;;;;;25.92;15.48;;;;;;;0.49;85.31;100275.30;1708354;81;21014;-73
2022/12/10 08:47:35;;;;;;;24.87;14.30;;;;;;;0.51;85.30;100272.79;1708392;82;21383;-74
2022/12/10 08:50:20;;;;;;;25.25;14.03;;;;;;;0.54;85.25;100275.36;1709418;82;20966;-73
2022/12/10 08:53:06;;;;;;;20.10;13.00;;;;;;;0.53;85.23;100282.55;1709676;82;20943;-73
2022/12/10 08:55:52;;;;;;;22.07;13.78;;;;;;;0.51;85.17;100274.06;1705927;82;20943;-74
2022/12/10 08:58:39;;;;;;;25.10;13.65;;;;;;;0.51;85.14;100281.70;1698816;82;21424;-74
2022/12/10 09:01:24;;;;;;;25.08;14.90;;;;;;;0.49;85.15;100279.53;1710237;81;20958;-74
2022/12/10 09:04:09;;;;;;;24.50;15.48;;;;;;;0.50;85.15;100285.06;1709558;82;21522;-74
2022/12/10 09:06:54;;;;;;;21.57;14.03;;;;;;;0.49;85.13;100278.27;1708932;82;21537;-73
2022/12/10 09:09:39;;;;;;;21.00;13.75;;;;;;;0.49;85.07;100278.27;1709806;82;21510;-74
2022/12/10 09:12:23;;;;;;;28.65;16.12;;;;;;;0.48;85.08;100281.64;1709091;81;21026;-74
2022/12/10 09:15:10;;;;;;;29.27;17.07;;;;;;;0.50;85.10;100284.66;1708774;82;20935;-73
2022/12/10 09:17:55;;;;;;;33.13;18.37;;;;;;;0.52;85.11;100283.41;1699141;83;21264;-74
2022/12/10 09:20:40;;;;;;;30.05;17.73;;;;;;;0.52;85.08;100285.50;1709536;82;21516;-74
2022/12/10 09:23:25;;;;;;;31.05;17.48;;;;;;;0.52;85.07;100282.96;1708921;82;20923;-74
2022/12/10 09:26:13;;;;;;;33.98;17.32;;;;;;;0.54;85.04;100283.84;1708689;81;20907;-74
2022/12/10 09:28:59;;;;;;;32.28;18.65;;;;;;;0.53;84.99;100285.95;1708053;81;20903;-73
2022/12/10 09:31:44;;;;;;;38.20;20.55;;;;;;;0.52;84.92;100288.50;1707511;83;20990;-74
2022/12/10 09:34:29;;;;;;;41.35;21.37;;;;;;;0.53;85.03;100285.95;1709566;82;21407;-74
2022/12/10 09:37:14;;;;;;;36.38;21.80;;;;;;;0.55;85.03;100277.94;1710508;82;21518;-74
2022/12/10 09:39:59;;;;;;;28.65;17.80;;;;;;;0.58;85.05;100286.89;1707579;82;20973;-74
2022/12/10 09:43:17;;;;;;;28.85;16.30;;;;;;;0.60;85.02;100278.02;1706987;81;20909;-73
2022/12/10 09:46:16;;;;;;;27.42;17.37;;;;;;;0.62;84.97;100278.49;1708568;81;20917;-74
2022/12/10 09:49:31;;;;;;;25.88;14.78;;;;;;;0.62;84.89;100273.41;1710866;81;20957;-74
2022/12/10 09:52:19;;;;;;;29.20;16.37;;;;;;;0.63;84.93;100276.39;1709733;81;20890;-74
2022/12/10 09:55:15;;;;;;;29.63;16.77;;;;;;;0.65;84.87;100275.15;1713797;81;20929;-74
2022/12/10 09:58:03;;;;;;;36.95;19.12;;;;;;;0.69;84.94;100272.25;1689264;83;20985;-74
2022/12/10 10:01:01;;;;;;;46.77;21.85;;;;;;;0.70;84.96;100267.19;1709830;81;20966;-74
2022/12/10 10:03:46;;;;;;;28.83;17.30;;;;;;;0.73;84.91;100263.42;1709779;81;20917;-74
2022/12/10 10:06:31;;;;;;;35.50;18.85;;;;;;;0.75;84.90;100264.72;1708133;81;20957;-74
2022/12/10 10:09:17;;;;;;;27.48;15.68;;;;;;;0.75;84.87;100252.86;1711167;80;20925;-74
2022/12/10 10:12:02;;;;;;;27.05;16.90;;;;;;;0.74;84.75;100255.38;1712521;81;26268;-74
2022/12/10 10:14:47;;;;;;;32.40;17.87;;;;;;;0.73;84.76;100254.52;1713294;81;20894;-74
2022/12/10 10:17:36;;;;;;;28.70;17.10;;;;;;;0.73;84.72;100258.75;1712893;80;20910;-74
2022/12/10 10:20:21;;;;;;;31.30;17.80;;;;;;;0.74;84.75;100257.92;1710037;81;21019;-74
2022/12/10 10:23:06;;;;;;;23.95;15.13;;;;;;;0.74;84.74;100258.78;1694532;81;21426;-74
2022/12/10 10:25:51;;;;;;;29.10;18.33;;;;;;;0.76;84.79;100262.62;1709785;81;21398;-74
2022/12/10 10:28:39;;;;;;;31.82;17.55;;;;;;;0.79;84.79;100266.08;1710435;81;21406;-74
2022/12/10 10:31:29;;;;;;;35.50;19.48;;;;;;;0.81;84.77;100268.66;1715112;81;20953;-74
2022/12/10 10:34:22;;;;;;;35.45;22.62;;;;;;;0.81;84.73;100264.84;1710189;81;20990;-73
2022/12/10 10:37:09;;;;;;;42.80;20.85;;;;;;;0.81;84.67;100263.56;1715329;81;20952;-73
2022/12/10 10:39:53;;;;;;;48.60;22.87;;;;;;;0.81;84.69;100268.23;1714493;81;21093;-74
2022/12/10 10:42:44;;;;;;;40.48;19.98;;;;;;;0.80;84.61;100266.94;1718344;81;20903;-74
2022/12/10 10:45:37;;;;;;;30.23;18.52;;;;;;;0.80;84.61;100283.48;1711878;81;21033;-74
2022/12/10 10:48:25;;;;;;;29.52;15.70;;;;;;;0.81;84.61;100275.02;1722582;81;20883;-73
2022/12/10 10:51:20;;;;;;;27.52;16.90;;;;;;;0.82;84.61;100272.91;1722424;81;21419;-74
2022/12/10 10:54:05;;;;;;;19.57;12.00;;;;;;;0.82;84.60;100266.13;1722920;81;21553;-74
2022/12/10 10:56:50;;;;;;;50.58;25.88;;;;;;;0.84;84.65;100259.80;1722093;81;20954;-74
2022/12/10 10:59:36;;;;;;;39.78;23.52;;;;;;;0.85;84.59;100260.23;1721695;81;20970;-74
2022/12/10 11:02:37;;;;;;;28.02;15.98;;;;;;;0.85;84.62;100252.61;1720509;81;21466;-74
2022/12/10 11:05:33;;;;;;;30.70;17.45;;;;;;;0.84;84.54;100254.30;1723832;81;20961;-74
2022/12/10 11:08:23;;;;;;;24.18;14.98;;;;;;;0.86;84.59;100246.27;1714818;81;445698;-74
2022/12/10 11:11:18;;;;;;;30.15;17.95;;;;;;;0.89;84.57;100253.95;1719152;81;20941;-74
2022/12/10 11:14:15;;;;;;;;;;;;;;;0.90;84.58;100240.41;1722331;81;20951;-74
2022/12/10 11:17:17;;;;;;;33.02;17.75;;;;;;;0.91;84.39;100240.84;1716235;81;20129;-74
2022/12/10 11:20:24;;;;;;;43.65;24.90;;;;;;;0.91;84.40;100242.53;1717534;81;20914;-74
2022/12/10 11:23:13;;;;;;;60.78;34.80;;;;;;;0.90;84.48;100245.49;1719410;81;21518;-74
2022/12/10 11:26:09;;;;;;;54.42;31.10;;;;;;;0.93;84.51;100239.59;1719921;81;21518;-74
2022/12/10 11:29:11;;;;;;;35.25;18.95;;;;;;;0.96;84.51;100240.50;1717102;81;20986;-74
2022/12/10 11:32:07;;;;;;;31.52;19.20;;;;;;;0.98;84.47;100243.08;1709653;81;20946;-74
2022/12/10 11:34:58;;;;;;;;;;;;;;;0.98;84.43;100247.75;1720012;81;20907;-74
2022/12/10 11:38:00;;;;;;;34.63;18.73;;;;;;;0.99;84.32;100243.10;1716072;81;20560;-74
2022/12/10 11:41:11;;;;;;;33.60;17.32;;;;;;;1.03;84.47;100241.47;1718257;81;21419;-73
2022/12/10 11:44:27;;;;;;;27.48;16.57;;;;;;;1.03;84.40;100242.73;1694780;81;20970;-74
2022/12/10 11:47:29;;;;;;;29.18;16.48;;;;;;;1.02;84.39;100240.17;1713263;80;21022;-74
2022/12/10 11:50:43;;;;;;;23.00;14.75;;;;;;;1.04;84.41;100235.95;1681531;82;21037;-74
2022/12/10 11:53:49;;;;;;;28.65;15.10;;;;;;;1.04;84.32;100239.33;1700678;82;21351;-74
2022/12/10 11:56:38;;;;;;;22.77;13.75;;;;;;;1.02;84.28;100232.11;1711228;82;21037;-74
2022/12/10 11:59:40;;;;;;;26.15;13.85;;;;;;;1.02;84.25;100228.30;1712918;80;21375;-74
2022/12/10 12:02:54;;;;;;;21.55;13.38;;;;;;;1.01;84.17;100227.86;1710739;81;21427;-74
2022/12/10 12:06:06;;;;;;;24.77;14.80;;;;;;;1.00;84.20;100227.41;1709901;81;20949;-74
2022/12/10 12:09:08;;;;;;;27.62;14.28;;;;;;;1.01;84.21;100219.36;1712784;81;20958;-74
2022/12/10 12:12:16;;;;;;;28.20;13.72;;;;;;;1.02;84.18;100228.71;1710613;82;20990;-74
2022/12/10 12:15:17;;;;;;;25.43;13.32;;;;;;;1.02;84.10;100227.44;1712550;82;20899;-74
2022/12/10 12:18:30;;;;;;;23.47;14.25;;;;;;;0.99;84.06;100229.10;1704328;82;20942;-74
2022/12/10 12:21:16;;;;;;;46.08;18.05;;;;;;;0.98;84.02;100229.94;1711551;81;21732;-73
2022/12/10 12:24:11;;;;;;;30.90;15.25;;;;;;;0.98;84.08;100228.66;1699347;82;209204;-74
2022/12/10 12:27:04;;;;;;;17.55;11.33;;;;;;;0.99;84.07;100230.37;1713061;82;20978;-74
2022/12/10 12:30:04;;;;;;;22.22;13.10;;;;;;;0.98;83.96;100235.44;1711884;82;20958;-74
2022/12/10 12:33:06;;;;;;;26.95;14.43;;;;;;;0.97;83.98;100242.22;1712439;82;20962;-74
2022/12/10 12:36:02;;;;;;;26.35;13.62;;;;;;;1.01;84.03;100242.27;1712868;82;21339;-74
2022/12/10 12:39:08;;;;;;;;;;;;;;;0.98;83.98;100235.02;1714744;82;20961;-74
2022/12/10 12:42:27;;;;;;;19.92;11.18;;;;;;;0.96;83.69;100232.88;1714451;82;20614;-74
2022/12/10 12:45:17;;;;;;;14.95;10.65;;;;;;;0.93;83.82;100235.78;1712581;82;21319;-73
2022/12/10 12:48:16;;;;;;;15.83;10.82;;;;;;;0.89;83.76;100232.33;1712415;82;20996;-74
2022/12/10 12:51:24;;;;;;;16.77;11.28;;;;;;;0.87;83.80;100230.17;1714069;82;20953;-74
2022/12/10 12:54:14;;;;;;;23.90;13.05;;;;;;;0.87;83.83;100238.22;1712630;80;20930;-74
2022/12/10 12:57:13;;;;;;;19.05;12.43;;;;;;;0.84;83.70;100240.71;1703552;82;20914;-74
2022/12/10 13:00:10;;;;;;;18.73;11.80;;;;;;;0.82;83.79;100244.92;1712923;82;21395;-74
2022/12/10 13:03:31;;;;;;;22.70;12.00;;;;;;;0.83;83.79;100247.91;1711837;81;21002;-74
2022/12/10 13:06:24;;;;;;;19.55;12.60;;;;;;;0.81;83.71;100247.88;1711348;82;20942;-73
2022/12/10 13:09:17;;;;;;;19.32;11.97;;;;;;;0.80;83.73;100250.39;1714417;82;20930;-74